»·PEaware :: QFA243 KSFO-YSSY

QFA243 :: KSFO-YSSY

FLIGHT INFORMATION

Flight Status: Arrived
Operator:
Qantas Airways
More flights by this operator :: More flights under this callsign
Pilot: Cullen C. (7783)
Aircraft: Unknown
(B748)
More flights by this aircraft type
Origin: KSFO San Francisco Intl
United States
Destination: YSSY Kingsford Smith Intl
Australia
More flights between these airports :: More routes between these airports
Route: GNNRR2 BAART 3453N13318W 3159N14436W/N0507F320 3034N15020W 2820N15508W 2540N15922W 2248N16315W 1907N16606W/N0504F340 1535N16903W 1154N17147W 0450N17734W 0137N18000E 0227S17656E/N0499F360 0613S17416E 1006S17141E 1725S16551E/N0491F380 21S163E 2109S16253E 2500S15954E 3002S15609E MARLN MARLN2
File this flight plan on PilotEdge
Remarks:
Altitude:
(Current/Filed)
38,000ft
Speed:
(Current/Filed)
510kts
Departed: 17-Jun-17 03:17 PM
Arrived: 18-Jun-17 05:43 AM
Distance/Time
Traveled:
6448nm/14:26
Distance/Time
To Go:
Arrived

Flight Plot

Page will automatically refresh every two minutes.

Flight plan parsing failed; only flown route is shown


Map Options




Map Legend


Flown Route
Filed Route
Departure Airport
Arrival Airport
Navaid (VOR, NDB)
Fix

Horizontal Profiles

Position Reports

Time Latitude Longitude Heading Altitude Ground
Speed
17-Jun-17 14:35 37.612696 -122.390265 118 28ft 0kts
17-Jun-17 14:36 37.612696 -122.390264 118 28ft 0kts
17-Jun-17 14:37 37.612696 -122.390264 118 28ft 0kts
17-Jun-17 14:39 37.612696 -122.390265 118 28ft 0kts
17-Jun-17 14:40 37.612696 -122.390264 118 28ft 0kts
17-Jun-17 14:40 37.612696 -122.390264 118 28ft 0kts
17-Jun-17 14:41 37.612696 -122.390264 118 28ft 0kts
17-Jun-17 14:42 37.612696 -122.390265 118 28ft 0kts
17-Jun-17 14:43 37.612696 -122.390265 118 28ft 0kts
17-Jun-17 14:44 37.612696 -122.390265 118 28ft 0kts
17-Jun-17 14:45 37.612696 -122.390265 118 28ft 0kts
17-Jun-17 14:46 37.612696 -122.390265 118 28ft 0kts
17-Jun-17 14:47 37.612696 -122.390265 118 28ft 0kts
17-Jun-17 14:48 37.612696 -122.390265 118 28ft 0kts
17-Jun-17 14:49 37.612696 -122.390265 118 28ft 0kts
17-Jun-17 14:50 37.612696 -122.390265 118 28ft 0kts
17-Jun-17 14:51 37.612696 -122.390265 118 28ft 0kts
17-Jun-17 14:52 37.612696 -122.390265 118 28ft 0kts
17-Jun-17 14:53 37.612696 -122.390265 118 28ft 0kts
17-Jun-17 14:54 37.612696 -122.390265 118 28ft 0kts
17-Jun-17 14:55 37.612696 -122.390265 118 28ft 0kts
17-Jun-17 14:56 37.612696 -122.390265 118 28ft 0kts
17-Jun-17 14:57 37.612696 -122.390265 118 28ft 0kts
17-Jun-17 14:58 37.612696 -122.390265 118 28ft 0kts
17-Jun-17 14:59 37.612696 -122.390265 118 28ft 0kts
17-Jun-17 15:00 37.612696 -122.390265 118 28ft 0kts
17-Jun-17 15:01 37.612696 -122.390265 118 28ft 0kts
17-Jun-17 15:02 37.612696 -122.390265 118 28ft 0kts
17-Jun-17 15:03 37.612817 -122.390555 118 28ft 3kts
17-Jun-17 15:04 37.613032 -122.391291 170 28ft 1kts
17-Jun-17 15:05 37.613007 -122.391280 203 28ft 0kts
17-Jun-17 15:06 37.613007 -122.391280 203 28ft 0kts
17-Jun-17 15:07 37.613007 -122.391280 203 28ft 0kts
17-Jun-17 15:08 37.612940 -122.391312 199 28ft 2kts
17-Jun-17 15:09 37.610375 -122.390432 126 28ft 15kts
17-Jun-17 15:10 37.610253 -122.385870 118 28ft 1kts
17-Jun-17 15:11 37.610238 -122.385833 118 28ft 0kts
17-Jun-17 15:12 37.609885 -122.384978 113 28ft 11kts
17-Jun-17 15:13 37.614309 -122.381187 29 28ft 23kts
17-Jun-17 15:14 37.617613 -122.376473 112 28ft 19kts
17-Jun-17 15:15 37.614343 -122.368784 130 28ft 29kts
17-Jun-17 15:16 37.611052 -122.361674 114 28ft 16kts
17-Jun-17 15:17 37.610808 -122.359220 37 28ft 0kts
17-Jun-17 15:18 37.611059 -122.359009 29 28ft 7kts
17-Jun-17 15:19 37.616407 -122.369522 297 28ft 120kts
17-Jun-17 15:20 37.640517 -122.417908 303 960ft 171kts
17-Jun-17 15:21 37.664270 -122.468566 294 1908ft 174kts
17-Jun-17 15:22 37.675690 -122.533977 270 3291ft 220kts
17-Jun-17 15:23 37.663687 -122.618909 270 5188ft 257kts
17-Jun-17 15:24 37.642212 -122.712573 253 7421ft 289kts
17-Jun-17 15:25 37.615959 -122.807295 253 9875ft 298kts
17-Jun-17 15:26 37.588001 -122.912561 253 10624ft 340kts
17-Jun-17 15:27 37.558154 -123.026508 253 12345ft 347kts
17-Jun-17 15:28 37.527745 -123.143028 253 13857ft 355kts
17-Jun-17 15:29 37.496586 -123.262024 252 15245ft 363kts
17-Jun-17 15:30 37.464603 -123.383565 252 16520ft 370kts
17-Jun-17 15:31 37.431907 -123.507194 252 17689ft 376kts
17-Jun-17 15:32 37.398564 -123.632702 252 18734ft 383kts
17-Jun-17 15:33 37.365097 -123.758951 252 19665ft 389kts
17-Jun-17 15:34 37.330388 -123.889012 251 20534ft 395kts
17-Jun-17 15:35 37.295167 -124.019819 251 21335ft 401kts
17-Jun-17 15:36 37.259081 -124.153007 251 22086ft 406kts
17-Jun-17 15:37 37.222277 -124.288218 251 22788ft 412kts
17-Jun-17 15:38 37.184889 -124.424786 251 23444ft 416kts
17-Jun-17 15:39 37.147077 -124.562156 251 24055ft 421kts
17-Jun-17 15:40 37.109291 -124.699035 250 24608ft 425kts
17-Jun-17 15:41 37.070578 -124.839458 250 25126ft 429kts
17-Jun-17 15:42 37.031112 -124.981010 250 25615ft 433kts
17-Jun-17 15:43 36.991044 -125.123579 250 26077ft 436kts
17-Jun-17 15:44 36.950619 -125.266634 249 26515ft 439kts
17-Jun-17 15:45 36.909563 -125.411203 249 26929ft 442kts
17-Jun-17 15:46 36.867690 -125.555008 248 27323ft 444kts
17-Jun-17 15:47 36.825274 -125.699806 248 27698ft 446kts
17-Jun-17 15:48 36.783553 -125.845384 248 28042ft 448kts
17-Jun-17 15:49 36.741217 -125.991818 248 28345ft 451kts
17-Jun-17 15:51 36.698372 -126.138671 248 28667ft 452kts
17-Jun-17 15:52 36.655154 -126.285872 247 29450ft 455kts
17-Jun-17 15:53 36.611540 -126.433694 247 30236ft 458kts
17-Jun-17 15:54 36.567339 -126.582667 247 30908ft 462kts
17-Jun-17 15:55 36.522744 -126.732655 246 31525ft 465kts
17-Jun-17 15:56 36.477568 -126.883703 246 32193ft 465kts
17-Jun-17 15:57 36.428433 -127.030685 242 32654ft 460kts
17-Jun-17 15:58 36.374447 -127.174444 241 32880ft 460kts
17-Jun-17 15:59 36.320532 -127.317585 241 32963ft 457kts
17-Jun-17 16:00 36.267267 -127.459690 241 32963ft 454kts
17-Jun-17 16:01 36.213801 -127.601836 241 32182ft 467kts
17-Jun-17 16:02 36.157698 -127.751088 241 31987ft 490kts
17-Jun-17 16:03 36.099792 -127.905289 241 31972ft 498kts
17-Jun-17 16:04 36.040661 -128.060699 241 31964ft 501kts
17-Jun-17 16:05 35.981140 -128.215932 241 31964ft 500kts
17-Jun-17 16:06 35.921722 -128.370099 241 31964ft 500kts
17-Jun-17 16:07 35.861224 -128.524681 241 31970ft 499kts
17-Jun-17 16:08 35.801288 -128.676005 240 31969ft 499kts
17-Jun-17 16:09 35.741509 -128.830064 241 31968ft 499kts
17-Jun-17 16:10 35.681591 -128.983481 241 31968ft 498kts
17-Jun-17 16:11 35.621139 -129.136681 240 31968ft 498kts
17-Jun-17 16:12 35.560495 -129.289559 240 31968ft 498kts
17-Jun-17 16:13 35.499754 -129.442031 240 31968ft 498kts
17-Jun-17 16:14 35.438998 -129.593877 240 31968ft 497kts
17-Jun-17 16:15 35.378220 -129.745844 240 31965ft 497kts
17-Jun-17 16:16 35.317470 -129.897542 240 31965ft 496kts
17-Jun-17 16:17 35.256179 -130.048700 240 31965ft 496kts
17-Jun-17 16:18 35.194809 -130.199095 240 31965ft 496kts
17-Jun-17 16:19 35.133257 -130.349377 240 31965ft 496kts
17-Jun-17 16:20 35.071502 -130.499519 240 31965ft 495kts
17-Jun-17 16:21 35.009562 -130.649397 240 31965ft 495kts
17-Jun-17 16:22 34.948043 -130.798879 239 31962ft 494kts
17-Jun-17 16:23 34.885923 -130.948315 239 31969ft 494kts
17-Jun-17 16:24 34.822789 -131.095925 239 31970ft 493kts
17-Jun-17 16:25 34.760028 -131.244017 239 31969ft 494kts
17-Jun-17 16:26 34.697582 -131.392033 239 31969ft 493kts
17-Jun-17 16:27 34.634774 -131.540243 239 31969ft 493kts
17-Jun-17 16:28 34.571841 -131.687978 240 31928ft 498kts
17-Jun-17 16:29 34.508131 -131.838012 240 31973ft 505kts
17-Jun-17 16:30 34.442952 -131.990077 240 31975ft 515kts
17-Jun-17 16:31 34.376301 -132.144444 240 31967ft 518kts
17-Jun-17 16:32 34.309345 -132.298825 240 31968ft 518kts
17-Jun-17 16:33 34.242372 -132.452493 240 31969ft 518kts
17-Jun-17 16:34 34.175025 -132.606231 240 31969ft 519kts
17-Jun-17 16:35 34.107809 -132.759672 240 31965ft 519kts
17-Jun-17 16:36 34.040174 -132.912801 239 31965ft 518kts
17-Jun-17 16:37 33.980555 -133.071227 252 31976ft 522kts
17-Jun-17 16:38 33.945793 -133.240383 256 31968ft 523kts
17-Jun-17 16:39 33.911408 -133.409926 254 31968ft 522kts
17-Jun-17 16:40 33.872849 -133.578258 253 31970ft 522kts
17-Jun-17 16:41 33.833360 -133.746291 253 31966ft 522kts
17-Jun-17 16:42 33.795116 -133.914524 253 31966ft 522kts
17-Jun-17 16:43 33.756680 -134.082679 253 31967ft 522kts
17-Jun-17 16:44 33.717878 -134.250310 253 31968ft 523kts
17-Jun-17 16:45 33.678695 -134.418331 253 31969ft 522kts
17-Jun-17 16:46 33.639362 -134.586017 253 31970ft 523kts
17-Jun-17 16:47 33.599930 -134.753697 253 31966ft 523kts
17-Jun-17 16:48 33.560427 -134.921131 252 31966ft 523kts
17-Jun-17 16:49 33.520491 -135.088129 252 31967ft 523kts
17-Jun-17 16:50 33.480147 -135.255445 252 31968ft 523kts
17-Jun-17 16:51 33.439723 -135.422075 252 31969ft 523kts
17-Jun-17 16:52 33.398963 -135.589096 252 31970ft 523kts
17-Jun-17 16:53 33.358132 -135.756048 252 31950ft 523kts
17-Jun-17 16:54 33.317326 -135.922389 252 31939ft 523kts
17-Jun-17 16:55 33.275894 -136.089111 252 31940ft 523kts
17-Jun-17 16:56 33.234276 -136.255261 252 31941ft 523kts
17-Jun-17 16:57 33.192372 -136.421605 252 31942ft 523kts
17-Jun-17 16:58 33.150297 -136.587674 252 31943ft 523kts
17-Jun-17 16:59 33.108202 -136.753404 251 31938ft 524kts
17-Jun-17 17:00 33.065891 -136.919557 251 31938ft 523kts
17-Jun-17 17:01 33.023262 -137.084883 251 31939ft 524kts
17-Jun-17 17:02 32.980197 -137.250591 251 31940ft 524kts
17-Jun-17 17:03 32.937084 -137.415601 251 31941ft 524kts
17-Jun-17 17:04 32.893663 -137.580664 251 31942ft 524kts
17-Jun-17 17:04 32.856239 -137.718205 250 31938ft 524kts
17-Jun-17 17:05 32.812201 -137.882501 251 31939ft 524kts
17-Jun-17 17:06 32.768197 -138.047534 251 31940ft 524kts
17-Jun-17 17:07 32.724073 -138.211900 251 31941ft 524kts
17-Jun-17 17:09 32.672271 -138.403359 251 31942ft 524kts
17-Jun-17 17:10 32.627705 -138.567008 250 32182ft 521kts
17-Jun-17 17:11 32.583699 -138.728142 250 32116ft 522kts
17-Jun-17 17:12 32.539117 -138.891279 250 32083ft 522kts
17-Jun-17 17:13 32.494017 -139.054419 250 32182ft 521kts
17-Jun-17 17:13 32.456229 -139.190064 250 32184ft 521kts
17-Jun-17 17:14 32.410819 -139.352247 250 32185ft 521kts
17-Jun-17 17:15 32.365070 -139.514786 250 32186ft 521kts
17-Jun-17 17:16 32.319127 -139.677219 249 32181ft 521kts
17-Jun-17 17:17 32.273485 -139.839094 249 32181ft 521kts
17-Jun-17 17:18 32.227438 -140.000631 249 32182ft 521kts
17-Jun-17 17:19 32.180948 -140.162158 249 32183ft 521kts
17-Jun-17 17:20 32.134237 -140.323556 249 32184ft 521kts
17-Jun-17 17:21 32.087258 -140.485052 249 32185ft 521kts
17-Jun-17 17:22 32.040104 -140.646326 249 32186ft 521kts
17-Jun-17 17:23 31.993092 -140.807520 249 32180ft 521kts
17-Jun-17 17:24 31.945859 -140.968114 248 32181ft 521kts
17-Jun-17 17:25 31.898000 -141.129139 248 32182ft 521kts
17-Jun-17 17:26 31.848919 -141.289175 248 32186ft 521kts
17-Jun-17 17:27 31.800267 -141.449026 248 32186ft 521kts
17-Jun-17 17:28 31.752008 -141.609113 248 32187ft 521kts
17-Jun-17 17:29 31.703717 -141.769454 248 32182ft 521kts
17-Jun-17 17:30 31.655320 -141.929235 247 32186ft 519kts
17-Jun-17 17:31 31.607703 -142.084749 246 32188ft 510kts
17-Jun-17 17:32 31.559547 -142.240785 246 32055ft 510kts
17-Jun-17 17:33 31.511117 -142.397188 246 32050ft 511kts
17-Jun-17 17:34 31.462655 -142.553015 246 32050ft 511kts
17-Jun-17 17:35 31.413929 -142.709150 246 32045ft 510kts
17-Jun-17 17:36 31.365386 -142.865139 246 32046ft 511kts
17-Jun-17 17:37 31.316405 -143.020526 246 32046ft 510kts
17-Jun-17 17:38 31.267147 -143.175562 246 32047ft 510kts
17-Jun-17 17:39 31.217585 -143.330877 246 32047ft 510kts
17-Jun-17 17:40 31.168106 -143.485270 245 32053ft 503kts
17-Jun-17 17:41 31.118901 -143.637795 246 32057ft 509kts
17-Jun-17 17:42 31.069138 -143.792384 245 32043ft 510kts
17-Jun-17 17:43 31.018864 -143.946230 245 32017ft 510kts
17-Jun-17 17:44 30.981389 -144.105819 257 32022ft 516kts
17-Jun-17 17:45 30.961801 -144.271397 259 32018ft 517kts
17-Jun-17 17:46 30.939982 -144.436466 257 32018ft 516kts
17-Jun-17 17:47 30.915672 -144.600974 257 32019ft 516kts
17-Jun-17 17:48 30.891332 -144.763504 256 32023ft 515kts
17-Jun-17 17:49 30.865774 -144.927212 256 32023ft 515kts
17-Jun-17 17:50 30.840785 -145.091304 256 32024ft 515kts
17-Jun-17 17:51 30.816005 -145.255136 256 32024ft 516kts
17-Jun-17 17:52 30.790904 -145.419310 256 32025ft 515kts
17-Jun-17 17:53 30.765699 -145.582428 256 32026ft 515kts
17-Jun-17 17:54 30.740297 -145.746318 256 32021ft 515kts
17-Jun-17 17:55 30.714869 -145.909664 256 32022ft 515kts
17-Jun-17 17:56 30.689052 -146.072808 256 32022ft 515kts
17-Jun-17 17:57 30.662959 -146.235979 256 32023ft 515kts
17-Jun-17 17:58 30.636647 -146.399256 256 32024ft 515kts
17-Jun-17 17:59 30.610198 -146.562032 256 32024ft 514kts
17-Jun-17 18:00 30.583596 -146.724931 255 32020ft 514kts
17-Jun-17 18:01 30.557007 -146.887626 255 32020ft 514kts
17-Jun-17 18:02 30.529983 -147.050319 255 32021ft 514kts
17-Jun-17 18:03 30.502833 -147.212007 254 32022ft 512kts
17-Jun-17 18:04 30.475590 -147.372903 255 32031ft 514kts
17-Jun-17 18:05 30.447982 -147.534865 255 32023ft 513kts
17-Jun-17 18:06 30.420280 -147.696457 254 32018ft 513kts
17-Jun-17 18:07 30.392494 -147.858600 254 32019ft 513kts
17-Jun-17 18:08 30.364429 -148.019905 254 32019ft 513kts
17-Jun-17 18:09 30.336052 -148.181189 254 32020ft 512kts
17-Jun-17 18:10 30.307447 -148.342586 254 32021ft 512kts
17-Jun-17 18:11 30.278642 -148.504000 254 32021ft 512kts
17-Jun-17 18:12 30.249969 -148.663505 254 32020ft 512kts
17-Jun-17 18:13 30.221120 -148.824376 254 32017ft 512kts
17-Jun-17 18:14 30.191973 -148.984763 254 32018ft 512kts
17-Jun-17 18:15 30.162409 -149.145440 254 32018ft 511kts
17-Jun-17 18:16 30.132657 -149.305883 254 32019ft 511kts
17-Jun-17 18:17 30.102765 -149.465939 254 32019ft 511kts
17-Jun-17 18:18 30.072539 -149.626525 254 32020ft 511kts
17-Jun-17 18:20 30.042429 -149.786162 253 32015ft 511kts
17-Jun-17 18:21 30.011631 -149.946000 253 32015ft 510kts
17-Jun-17 18:22 29.969126 -150.100483 242 32015ft 503kts
17-Jun-17 18:23 29.911638 -150.246732 241 32017ft 502kts
17-Jun-17 18:24 29.853681 -150.392876 241 32026ft 502kts
17-Jun-17 18:25 29.797104 -150.539828 242 32026ft 503kts
17-Jun-17 18:26 29.741363 -150.686926 242 32021ft 502kts
17-Jun-17 18:27 29.685898 -150.834068 242 32021ft 502kts
17-Jun-17 18:28 29.629801 -150.980894 241 32022ft 502kts
17-Jun-17 18:29 29.573586 -151.126800 241 32022ft 502kts
17-Jun-17 18:30 29.517021 -151.273100 241 32034ft 495kts
17-Jun-17 18:31 29.461015 -151.417349 241 32031ft 501kts
17-Jun-17 18:32 29.404341 -151.562854 241 32022ft 500kts
17-Jun-17 18:33 29.347796 -151.707912 241 32017ft 500kts
17-Jun-17 18:34 29.291229 -151.853557 241 32018ft 500kts
17-Jun-17 18:35 29.234285 -151.998402 241 32018ft 499kts
17-Jun-17 18:36 29.177309 -152.142308 241 32018ft 499kts
17-Jun-17 18:37 29.119964 -152.286657 241 32018ft 499kts
17-Jun-17 18:38 29.062546 -152.430700 241 32018ft 499kts
17-Jun-17 18:39 29.004888 -152.574795 241 32018ft 499kts
17-Jun-17 18:40 28.947274 -152.718703 240 32014ft 498kts
17-Jun-17 18:41 28.889970 -152.862136 240 32021ft 498kts
17-Jun-17 18:42 28.831095 -153.004697 240 32024ft 498kts
17-Jun-17 18:43 28.772524 -153.147593 240 32024ft 498kts
17-Jun-17 18:44 28.714491 -153.290089 240 32051ft 498kts
17-Jun-17 18:45 28.656136 -153.432868 240 32051ft 497kts
17-Jun-17 18:46 28.597700 -153.575165 240 32051ft 497kts
17-Jun-17 18:47 28.539405 -153.717050 240 32047ft 497kts
17-Jun-17 18:48 28.481075 -153.859460 240 32047ft 497kts
17-Jun-17 18:49 28.422446 -154.000873 239 32047ft 497kts
17-Jun-17 18:50 28.363396 -154.142419 239 32047ft 496kts
17-Jun-17 18:51 28.304223 -154.283823 239 32047ft 496kts
17-Jun-17 18:52 28.245014 -154.424843 239 32047ft 496kts
17-Jun-17 18:53 28.185673 -154.565628 239 32047ft 496kts
17-Jun-17 18:54 28.126311 -154.706212 239 32042ft 496kts
17-Jun-17 18:55 28.067098 -154.846649 239 32042ft 495kts
17-Jun-17 18:56 28.007199 -154.985063 236 32044ft 494kts
17-Jun-17 18:57 27.929312 -155.109939 225 32041ft 484kts
17-Jun-17 18:58 27.841754 -155.225164 224 32052ft 483kts
17-Jun-17 18:59 27.755343 -155.341204 225 32052ft 484kts
17-Jun-17 19:00 27.670480 -155.458519 226 32052ft 484kts
17-Jun-17 19:01 27.585468 -155.576066 226 32051ft 484kts
17-Jun-17 19:02 27.500426 -155.693335 225 32046ft 483kts
17-Jun-17 19:03 27.415950 -155.810570 225 32046ft 483kts
17-Jun-17 19:04 27.330851 -155.927316 225 32045ft 483kts
17-Jun-17 19:05 27.245637 -156.043465 225 32045ft 483kts
17-Jun-17 19:06 27.160297 -156.159513 225 32044ft 483kts
17-Jun-17 19:07 27.075176 -156.275008 225 32070ft 482kts
17-Jun-17 19:08 26.989835 -156.390483 225 32068ft 483kts
17-Jun-17 19:09 26.904723 -156.505347 225 32069ft 482kts
17-Jun-17 19:10 26.818654 -156.619828 225 32081ft 482kts
17-Jun-17 19:11 26.733054 -156.734681 225 32077ft 482kts
17-Jun-17 19:12 26.647649 -156.850096 225 32076ft 481kts
17-Jun-17 19:13 26.562272 -156.964313 224 32075ft 481kts
17-Jun-17 19:14 26.476247 -157.078835 224 32075ft 481kts
17-Jun-17 19:15 26.390624 -157.192600 224 32074ft 481kts
17-Jun-17 19:16 26.304585 -157.306649 224 32073ft 481kts
17-Jun-17 19:17 26.218700 -157.420208 224 32073ft 481kts
17-Jun-17 19:18 26.132574 -157.533776 224 32072ft 481kts
17-Jun-17 19:19 26.047168 -157.646115 224 32078ft 481kts
17-Jun-17 19:20 25.961613 -157.759601 224 32067ft 480kts
17-Jun-17 19:21 25.875753 -157.872580 224 32080ft 480kts
17-Jun-17 19:22 25.788763 -157.984570 224 32078ft 479kts
17-Jun-17 19:23 25.702247 -158.096726 224 32077ft 480kts
17-Jun-17 19:24 25.615792 -158.209143 224 32077ft 480kts
17-Jun-17 19:25 25.529267 -158.321343 224 32076ft 480kts
17-Jun-17 19:26 25.442936 -158.432950 224 32076ft 480kts
17-Jun-17 19:27 25.356383 -158.544550 224 32075ft 479kts
17-Jun-17 19:28 25.270386 -158.655144 224 32074ft 479kts
17-Jun-17 19:29 25.184429 -158.766653 224 32070ft 479kts
17-Jun-17 19:30 25.097890 -158.877608 223 32069ft 478kts
17-Jun-17 19:31 25.010396 -158.988096 223 32069ft 478kts
17-Jun-17 19:32 24.927353 -159.101741 227 32068ft 481kts
17-Jun-17 19:33 24.845341 -159.216942 226 32073ft 480kts
17-Jun-17 19:34 24.762082 -159.331051 226 32025ft 479kts
17-Jun-17 19:35 24.679018 -159.445117 226 32025ft 479kts
17-Jun-17 19:36 24.596076 -159.559102 226 32024ft 479kts
17-Jun-17 19:37 24.514364 -159.671216 226 32020ft 478kts
17-Jun-17 19:38 24.431696 -159.785731 226 32019ft 479kts
17-Jun-17 19:39 24.348654 -159.899589 225 32018ft 478kts
17-Jun-17 19:40 24.265278 -160.013022 225 32018ft 478kts
17-Jun-17 19:41 24.182022 -160.126020 225 32017ft 478kts
17-Jun-17 19:41 24.112286 -160.220524 225 32017ft 478kts
17-Jun-17 19:42 24.028962 -160.333215 225 32016ft 478kts
17-Jun-17 19:44 23.931457 -160.464756 225 32015ft 478kts
17-Jun-17 19:44 23.861949 -160.557880 225 32028ft 478kts
17-Jun-17 19:45 23.777698 -160.669518 225 32024ft 478kts
17-Jun-17 19:46 23.694471 -160.782122 225 32022ft 478kts
17-Jun-17 19:47 23.610759 -160.894716 225 32021ft 478kts
17-Jun-17 19:48 23.526986 -161.006480 225 32021ft 478kts
17-Jun-17 19:49 23.442790 -161.118487 225 32020ft 478kts
17-Jun-17 19:50 23.358517 -161.230392 225 32020ft 478kts
17-Jun-17 19:51 23.274395 -161.341867 225 32019ft 478kts
17-Jun-17 19:52 23.190050 -161.453407 225 32019ft 478kts
17-Jun-17 19:53 23.105974 -161.564341 225 32018ft 478kts
17-Jun-17 19:54 23.021527 -161.675643 225 32013ft 478kts
17-Jun-17 19:55 22.937733 -161.787130 225 32013ft 478kts
17-Jun-17 19:56 22.853191 -161.897802 224 32024ft 477kts
17-Jun-17 19:57 22.767838 -162.007971 225 32024ft 478kts
17-Jun-17 19:58 22.683068 -162.118336 225 32023ft 478kts
17-Jun-17 19:59 22.598395 -162.228706 225 32023ft 478kts
17-Jun-17 20:00 22.513518 -162.339050 225 32022ft 478kts
17-Jun-17 20:01 22.428580 -162.449187 225 32022ft 478kts
17-Jun-17 20:02 22.343357 -162.559430 225 32021ft 479kts
17-Jun-17 20:03 22.258198 -162.669428 225 32017ft 478kts
17-Jun-17 20:04 22.173463 -162.779862 225 32017ft 479kts
17-Jun-17 20:05 22.088178 -162.889466 224 32042ft 478kts
17-Jun-17 20:06 22.002014 -162.998233 222 32038ft 477kts
17-Jun-17 20:07 21.909051 -163.099050 218 32040ft 473kts
17-Jun-17 20:08 21.812991 -163.194930 218 32052ft 473kts
17-Jun-17 20:09 21.717073 -163.291665 218 32052ft 473kts
17-Jun-17 20:10 21.621859 -163.388977 218 32051ft 474kts
17-Jun-17 20:11 21.526622 -163.486270 218 32050ft 474kts
17-Jun-17 20:12 21.431364 -163.583291 218 32049ft 474kts
17-Jun-17 20:13 21.336060 -163.680350 218 32044ft 474kts
17-Jun-17 20:14 21.241014 -163.778164 218 32043ft 474kts
17-Jun-17 20:15 21.145738 -163.875024 218 32043ft 474kts
17-Jun-17 20:16 21.049961 -163.971747 218 32042ft 474kts
17-Jun-17 20:17 20.954142 -164.068352 218 32041ft 474kts
17-Jun-17 20:18 20.859469 -164.163373 218 32053ft 474kts
17-Jun-17 20:19 20.763161 -164.259021 218 32052ft 474kts
17-Jun-17 20:20 20.667108 -164.355103 218 32051ft 474kts
17-Jun-17 20:21 20.571095 -164.451305 218 32050ft 474kts
17-Jun-17 20:22 20.475193 -164.547199 218 32050ft 474kts
17-Jun-17 20:23 20.379048 -164.643132 218 32049ft 474kts
17-Jun-17 20:24 20.283267 -164.739660 218 32044ft 474kts
17-Jun-17 20:25 20.187430 -164.835749 218 32043ft 474kts
17-Jun-17 20:26 20.091153 -164.931283 218 32042ft 474kts
17-Jun-17 20:27 19.995027 -165.026431 218 32042ft 473kts
17-Jun-17 20:28 19.898014 -165.120653 218 32043ft 474kts
17-Jun-17 20:29 19.801806 -165.215869 218 32052ft 474kts
17-Jun-17 20:30 19.705413 -165.310786 218 32051ft 474kts
17-Jun-17 20:31 19.608850 -165.405746 218 32051ft 474kts
17-Jun-17 20:32 19.512445 -165.500419 218 32050ft 474kts
17-Jun-17 20:33 19.416147 -165.594813 218 32049ft 474kts
17-Jun-17 20:34 19.319520 -165.689693 218 32044ft 474kts
17-Jun-17 20:35 19.223494 -165.784663 217 32043ft 474kts
17-Jun-17 20:36 19.126566 -165.879067 217 32042ft 474kts
17-Jun-17 20:37 19.029339 -165.972936 217 32042ft 474kts
17-Jun-17 20:38 18.927955 -166.060380 211 32040ft 470kts
17-Jun-17 20:39 18.821889 -166.140324 210 32052ft 469kts
17-Jun-17 20:40 18.715858 -166.220095 211 32051ft 470kts
17-Jun-17 20:41 18.610470 -166.300773 211 32050ft 470kts
17-Jun-17 20:42 18.505069 -166.381617 211 32049ft 470kts
17-Jun-17 20:43 18.399378 -166.462474 211 32048ft 470kts
17-Jun-17 20:44 18.294055 -166.542881 211 32048ft 470kts
17-Jun-17 20:45 18.188355 -166.623449 211 32047ft 470kts
17-Jun-17 20:46 18.083041 -166.704337 211 32042ft 470kts
17-Jun-17 20:48 17.977955 -166.785300 211 32040ft 470kts
17-Jun-17 20:49 17.872262 -166.865550 211 32052ft 470kts
17-Jun-17 20:50 17.766149 -166.945011 211 32051ft 470kts
17-Jun-17 20:51 17.660505 -167.024649 210 32047ft 466kts
17-Jun-17 20:52 17.555365 -167.104103 210 32049ft 467kts
17-Jun-17 20:53 17.450344 -167.183348 210 32048ft 467kts
17-Jun-17 20:54 17.345348 -167.262442 210 32047ft 467kts
17-Jun-17 20:55 17.239975 -167.341703 210 32046ft 467kts
17-Jun-17 20:56 17.134832 -167.420679 210 32045ft 467kts
17-Jun-17 20:57 17.029552 -167.499641 210 32044ft 467kts
17-Jun-17 20:58 16.923908 -167.578767 210 32043ft 467kts
17-Jun-17 20:59 16.819965 -167.655970 210 32054ft 467kts
17-Jun-17 21:00 16.714616 -167.735324 210 32049ft 467kts
17-Jun-17 21:01 16.609368 -167.814410 210 32048ft 467kts
17-Jun-17 21:02 16.504034 -167.892877 210 32047ft 467kts
17-Jun-17 21:03 16.398403 -167.971398 210 32046ft 467kts
17-Jun-17 21:04 16.292993 -168.049685 210 32045ft 467kts
17-Jun-17 21:05 16.187008 -168.128303 210 32044ft 467kts
17-Jun-17 21:06 16.081382 -168.206538 210 32043ft 467kts
17-Jun-17 21:07 15.975834 -168.284618 210 32042ft 467kts
17-Jun-17 21:08 15.869888 -168.362785 210 32056ft 467kts
17-Jun-17 21:09 15.763805 -168.440213 210 32053ft 467kts
17-Jun-17 21:10 15.657873 -168.518024 210 32052ft 468kts
17-Jun-17 21:11 15.551962 -168.595997 210 32051ft 468kts
17-Jun-17 21:12 15.447523 -168.672949 210 32045ft 468kts
17-Jun-17 21:13 15.341861 -168.751784 210 32044ft 468kts
17-Jun-17 21:14 15.235996 -168.829537 210 32043ft 468kts
17-Jun-17 21:15 15.129812 -168.906932 210 32042ft 468kts
17-Jun-17 21:16 15.023749 -168.983806 209 32041ft 468kts
17-Jun-17 21:17 14.911927 -169.050021 201 32040ft 462kts
17-Jun-17 21:18 14.796064 -169.106628 201 32052ft 461kts
17-Jun-17 21:19 14.680451 -169.163921 201 32051ft 462kts
17-Jun-17 21:20 14.565730 -169.222072 202 32050ft 462kts
17-Jun-17 21:21 14.450636 -169.280520 201 32048ft 462kts
17-Jun-17 21:22 14.335233 -169.338961 201 32047ft 462kts
17-Jun-17 21:23 14.220124 -169.397155 201 32046ft 462kts
17-Jun-17 21:24 14.105284 -169.455143 201 32045ft 462kts
17-Jun-17 21:25 13.989797 -169.513403 201 32044ft 462kts
17-Jun-17 21:26 13.874953 -169.571246 201 32056ft 462kts
17-Jun-17 21:27 13.759348 -169.628862 201 32054ft 462kts
17-Jun-17 21:28 13.644267 -169.687172 202 32048ft 463kts
17-Jun-17 21:29 13.529270 -169.746069 201 32046ft 463kts
17-Jun-17 21:30 13.413919 -169.804138 201 32045ft 462kts
17-Jun-17 21:31 13.298681 -169.861836 201 32044ft 462kts
17-Jun-17 21:32 13.183394 -169.919522 201 32043ft 462kts
17-Jun-17 21:33 13.068216 -169.977120 201 32042ft 463kts
17-Jun-17 21:34 12.952834 -170.034756 201 32041ft 463kts
17-Jun-17 21:35 12.837210 -170.092253 201 32052ft 462kts
17-Jun-17 21:36 12.721679 -170.149370 201 32051ft 462kts
17-Jun-17 21:37 12.605941 -170.206915 201 32050ft 463kts
17-Jun-17 21:38 12.490693 -170.264286 201 32049ft 463kts
17-Jun-17 21:39 12.375033 -170.321787 201 32048ft 463kts
17-Jun-17 21:40 12.259428 -170.379189 201 32047ft 463kts
17-Jun-17 21:41 12.143881 -170.436508 201 32046ft 463kts
17-Jun-17 21:42 12.028292 -170.493787 201 32045ft 463kts
17-Jun-17 21:43 11.912805 -170.550961 201 32043ft 463kts
17-Jun-17 21:44 11.797041 -170.607799 201 32054ft 463kts
17-Jun-17 21:45 11.681246 -170.664827 201 32047ft 463kts
17-Jun-17 21:46 11.566125 -170.722957 201 32047ft 464kts
17-Jun-17 21:47 11.450430 -170.780354 201 32046ft 463kts
17-Jun-17 21:48 11.334439 -170.837352 201 32045ft 463kts
17-Jun-17 21:49 11.218650 -170.894201 201 32044ft 463kts
17-Jun-17 21:50 11.102931 -170.950859 201 32042ft 463kts
17-Jun-17 21:51 10.988246 -171.010420 209 32054ft 469kts
17-Jun-17 21:52 10.888633 -171.095070 217 32049ft 476kts
17-Jun-17 21:53 10.790763 -171.184962 216 32052ft 475kts
17-Jun-17 21:54 10.691225 -171.272865 215 32051ft 474kts
17-Jun-17 21:55 10.591659 -171.359834 215 32051ft 474kts
17-Jun-17 21:56 10.491832 -171.447109 215 32050ft 474kts
17-Jun-17 21:57 10.392055 -171.534361 215 32049ft 474kts
17-Jun-17 21:58 10.292262 -171.621559 215 32049ft 474kts
17-Jun-17 21:59 10.193314 -171.708670 216 32042ft 475kts
17-Jun-17 22:00 10.093695 -171.796690 215 31882ft 477kts
17-Jun-17 22:01 9.994159 -171.883600 215 32038ft 475kts
17-Jun-17 22:02 9.893887 -171.970824 215 31882ft 477kts
17-Jun-17 22:03 9.793253 -172.057398 215 31889ft 477kts
17-Jun-17 22:04 9.692256 -172.144682 215 31889ft 477kts
17-Jun-17 22:04 9.609062 -172.216944 215 31880ft 478kts
17-Jun-17 22:06 9.491254 -172.319242 215 31860ft 478kts
17-Jun-17 22:07 9.390701 -172.406439 215 31859ft 478kts
17-Jun-17 22:08 9.289999 -172.493686 215 31859ft 478kts
17-Jun-17 22:08 9.205871 -172.566525 215 31858ft 478kts
17-Jun-17 22:09 9.105192 -172.653656 215 31857ft 478kts
17-Jun-17 22:11 8.988115 -172.756395 215 31851ft 478kts
17-Jun-17 22:12 8.887667 -172.843661 215 31857ft 478kts
17-Jun-17 22:13 8.786031 -172.930313 215 31861ft 478kts
17-Jun-17 22:13 8.702018 -173.002308 215 31861ft 478kts
17-Jun-17 22:14 8.600858 -173.089483 215 31860ft 478kts
17-Jun-17 22:15 8.500255 -173.176188 215 31859ft 478kts
17-Jun-17 22:16 8.399524 -173.262904 215 31859ft 478kts
17-Jun-17 22:17 8.298469 -173.349816 215 31858ft 478kts
17-Jun-17 22:18 8.198332 -173.435891 215 31857ft 478kts
17-Jun-17 22:19 8.097171 -173.522779 215 31857ft 478kts
17-Jun-17 22:20 7.996259 -173.609397 215 31856ft 478kts
17-Jun-17 22:21 7.895426 -173.696406 215 31851ft 478kts
17-Jun-17 22:22 7.794433 -173.783322 215 31860ft 478kts
17-Jun-17 22:23 7.693228 -173.869735 215 31860ft 478kts
17-Jun-17 22:24 7.591824 -173.956469 215 31859ft 478kts
17-Jun-17 22:25 7.490689 -174.043003 215 31858ft 479kts
17-Jun-17 22:26 7.389186 -174.129812 215 31859ft 476kts
17-Jun-17 22:27 7.288623 -174.215747 215 31857ft 477kts
17-Jun-17 22:28 7.187641 -174.301965 215 31856ft 477kts
17-Jun-17 22:29 7.086745 -174.388069 215 31856ft 477kts
17-Jun-17 22:30 6.985539 -174.474390 215 31855ft 477kts
17-Jun-17 22:31 6.884641 -174.560381 215 31863ft 477kts
17-Jun-17 22:32 6.783055 -174.645903 215 31865ft 477kts
17-Jun-17 22:33 6.682442 -174.732312 215 31859ft 477kts
17-Jun-17 22:34 6.581868 -174.818755 215 31858ft 477kts
17-Jun-17 22:35 6.480846 -174.904703 215 31858ft 477kts
17-Jun-17 22:36 6.379957 -174.990394 215 31857ft 477kts
17-Jun-17 22:37 6.278770 -175.076349 215 31856ft 477kts
17-Jun-17 22:38 6.177484 -175.162352 215 31855ft 477kts
17-Jun-17 22:39 6.076570 -175.247993 215 31855ft 477kts
17-Jun-17 22:40 5.975173 -175.334000 215 31854ft 477kts
17-Jun-17 22:41 5.874039 -175.419658 215 31866ft 477kts
17-Jun-17 22:42 5.772370 -175.504788 215 31864ft 477kts
17-Jun-17 22:43 5.670680 -175.590587 215 31864ft 478kts
17-Jun-17 22:44 5.569564 -175.676429 215 31857ft 478kts
17-Jun-17 22:45 5.468813 -175.763122 215 31857ft 478kts
17-Jun-17 22:46 5.367737 -175.848999 215 31856ft 478kts
17-Jun-17 22:47 5.266449 -175.934543 215 31855ft 478kts
17-Jun-17 22:48 5.165083 -176.020164 215 31855ft 478kts
17-Jun-17 22:49 5.063505 -176.105939 215 31854ft 478kts
17-Jun-17 22:50 4.962274 -176.191414 214 31854ft 476kts
17-Jun-17 22:51 4.861182 -176.276527 214 31866ft 476kts
17-Jun-17 22:52 4.759738 -176.361114 214 31864ft 476kts
17-Jun-17 22:53 4.658605 -176.446174 214 31863ft 476kts
17-Jun-17 22:54 4.557321 -176.531605 214 31862ft 476kts
17-Jun-17 22:55 4.456445 -176.616614 214 31861ft 476kts
17-Jun-17 22:56 4.355572 -176.702187 215 31855ft 476kts
17-Jun-17 22:57 4.255012 -176.787846 214 31854ft 476kts
17-Jun-17 22:58 4.153541 -176.873032 214 31853ft 476kts
17-Jun-17 22:59 4.052460 -176.957484 214 31853ft 476kts
17-Jun-17 23:00 3.953260 -177.045639 219 31855ft 480kts
17-Jun-17 23:01 3.860199 -177.141693 220 31864ft 481kts
17-Jun-17 23:02 3.766364 -177.236396 219 31863ft 480kts
17-Jun-17 23:03 3.671880 -177.330839 219 31862ft 480kts
17-Jun-17 23:04 3.577597 -177.425272 219 31862ft 480kts
17-Jun-17 23:05 3.483636 -177.519448 219 31861ft 480kts
17-Jun-17 23:06 3.389494 -177.613769 219 31861ft 480kts
17-Jun-17 23:07 3.295326 -177.708756 220 31854ft 481kts
17-Jun-17 23:08 3.201544 -177.803890 219 31853ft 481kts
17-Jun-17 23:09 3.107464 -177.898221 219 31853ft 480kts
17-Jun-17 23:10 3.013061 -177.992582 219 31852ft 480kts
17-Jun-17 23:11 2.918858 -178.086808 219 31852ft 480kts
17-Jun-17 23:12 2.824251 -178.180648 219 31863ft 480kts
17-Jun-17 23:13 2.729762 -178.274284 219 31863ft 480kts
17-Jun-17 23:14 2.635435 -178.368534 219 31862ft 480kts
17-Jun-17 23:15 2.541311 -178.462688 219 31862ft 480kts
17-Jun-17 23:16 2.447104 -178.556850 219 31861ft 480kts
17-Jun-17 23:17 2.353807 -178.650088 219 31860ft 480kts
17-Jun-17 23:18 2.259837 -178.745172 220 31854ft 481kts
17-Jun-17 23:20 2.165776 -178.839826 219 31853ft 481kts
17-Jun-17 23:21 2.071365 -178.934056 219 31853ft 481kts
17-Jun-17 23:22 1.977132 -179.028057 219 31852ft 481kts
17-Jun-17 23:23 1.882495 -179.122447 219 31862ft 481kts
17-Jun-17 23:24 1.787634 -179.215933 219 31863ft 480kts
17-Jun-17 23:25 1.693016 -179.309921 219 31863ft 481kts
17-Jun-17 23:26 1.598597 -179.404181 219 31862ft 481kts
17-Jun-17 23:27 1.504075 -179.498503 219 31861ft 481kts
17-Jun-17 23:28 1.410093 -179.593416 220 31855ft 481kts
17-Jun-17 23:29 1.316081 -179.687746 219 31854ft 481kts
17-Jun-17 23:30 1.221616 -179.781704 219 31854ft 481kts
17-Jun-17 23:31 1.127052 -179.875657 219 31853ft 481kts
17-Jun-17 23:32 1.032205 -179.969515 219 31852ft 480kts
17-Jun-17 23:33 0.944860 179.929588 228 31855ft 488kts
17-Jun-17 23:34 0.866665 179.820705 228 31864ft 488kts
17-Jun-17 23:35 0.785907 179.712315 227 31863ft 488kts
17-Jun-17 23:36 0.704360 179.604190 227 31863ft 488kts
17-Jun-17 23:37 0.622852 179.495716 227 31863ft 488kts
17-Jun-17 23:38 0.541758 179.387618 227 31863ft 488kts
17-Jun-17 23:39 0.460793 179.278965 228 31856ft 489kts
17-Jun-17 23:40 0.380022 179.170131 227 31856ft 488kts
17-Jun-17 23:41 0.298824 179.061823 227 31856ft 488kts
17-Jun-17 23:42 0.217386 178.953458 227 31855ft 488kts
17-Jun-17 23:43 0.136084 178.845171 227 31855ft 488kts
17-Jun-17 23:44 0.054724 178.736780 227 31855ft 488kts
17-Jun-17 23:45 -0.026403 178.628712 227 31854ft 488kts
17-Jun-17 23:46 -0.107808 178.520283 227 31859ft 488kts
17-Jun-17 23:47 -0.189843 178.412610 227 31866ft 488kts
17-Jun-17 23:48 -0.270097 178.306139 228 31859ft 488kts
17-Jun-17 23:49 -0.350790 178.197130 227 31859ft 488kts
17-Jun-17 23:50 -0.432013 178.088503 227 31859ft 488kts
17-Jun-17 23:51 -0.513149 177.980503 227 31858ft 488kts
17-Jun-17 23:52 -0.594466 177.872216 227 31858ft 488kts
17-Jun-17 23:53 -0.676035 177.763543 227 31858ft 488kts
17-Jun-17 23:54 -0.757263 177.655327 227 31857ft 488kts
17-Jun-17 23:55 -0.838640 177.546895 227 31857ft 488kts
17-Jun-17 23:56 -0.919809 177.438721 227 31857ft 488kts
17-Jun-17 23:57 -1.000743 177.330792 227 31852ft 488kts
17-Jun-17 23:58 -1.081416 177.221795 227 31850ft 489kts
17-Jun-17 23:59 -1.162848 177.113757 227 31861ft 488kts
18-Jun-17 00:00 -1.244820 177.005742 227 31861ft 488kts
18-Jun-17 00:01 -1.326079 176.897501 227 31861ft 488kts
18-Jun-17 00:02 -1.407375 176.788999 227 31861ft 488kts
18-Jun-17 00:03 -1.488598 176.680695 227 31860ft 488kts
18-Jun-17 00:04 -1.569912 176.572280 227 31860ft 489kts
18-Jun-17 00:05 -1.651272 176.463760 227 31860ft 489kts
18-Jun-17 00:06 -1.732641 176.355244 227 31860ft 489kts
18-Jun-17 00:07 -1.813331 176.246461 228 31853ft 489kts
18-Jun-17 00:08 -1.894477 176.137865 227 31853ft 489kts
18-Jun-17 00:09 -1.976272 176.029804 226 31849ft 487kts
18-Jun-17 00:10 -2.078608 175.951433 208 31837ft 436kts
18-Jun-17 00:11 -2.185853 175.902720 206 33194ft 405kts
18-Jun-17 00:12 -2.290786 175.853721 207 33665ft 421kts
18-Jun-17 00:13 -2.394525 175.802516 208 34939ft 415kts
18-Jun-17 00:14 -2.497141 175.751366 208 35752ft 414kts
18-Jun-17 00:15 -2.600193 175.700037 208 36381ft 414kts
18-Jun-17 00:16 -2.702943 175.648865 208 36828ft 414kts
18-Jun-17 00:17 -2.805797 175.597631 208 37172ft 415kts
18-Jun-17 00:18 -2.904581 175.548437 208 37858ft 400kts
18-Jun-17 00:19 -3.005770 175.497946 208 37858ft 415kts
18-Jun-17 00:20 -3.108871 175.446577 208 37848ft 415kts
18-Jun-17 00:21 -3.212111 175.395739 208 37856ft 415kts
18-Jun-17 00:22 -3.315264 175.344586 208 37860ft 415kts
18-Jun-17 00:23 -3.418125 175.292108 208 37863ft 415kts
18-Jun-17 00:24 -3.520898 175.240230 208 37861ft 415kts
18-Jun-17 00:25 -3.623910 175.188742 208 37859ft 415kts
18-Jun-17 00:26 -3.727150 175.137224 208 37887ft 413kts
18-Jun-17 00:27 -3.830428 175.085687 211 37824ft 422kts
18-Jun-17 00:28 -3.936939 175.032230 211 37898ft 436kts
18-Jun-17 00:29 -4.047422 174.976974 211 37896ft 451kts
18-Jun-17 00:30 -4.158452 174.921856 211 37886ft 451kts
18-Jun-17 00:31 -4.270751 174.866401 211 37885ft 451kts
18-Jun-17 00:32 -4.382735 174.810501 211 37884ft 451kts
18-Jun-17 00:33 -4.493640 174.754948 211 37883ft 451kts
18-Jun-17 00:34 -4.605239 174.699052 211 37881ft 451kts
18-Jun-17 00:35 -4.716860 174.643138 211 37907ft 451kts
18-Jun-17 00:36 -4.828864 174.587014 211 37906ft 451kts
18-Jun-17 00:37 -4.940797 174.530904 211 37905ft 451kts
18-Jun-17 00:38 -5.052563 174.474864 211 37904ft 451kts
18-Jun-17 00:39 -5.164466 174.419048 211 37906ft 451kts
18-Jun-17 00:40 -5.276642 174.363378 211 37905ft 451kts
18-Jun-17 00:41 -5.388094 174.306748 211 37917ft 451kts
18-Jun-17 00:42 -5.499769 174.249832 211 37916ft 451kts
18-Jun-17 00:43 -5.611408 174.193745 211 37915ft 451kts
18-Jun-17 00:44 -5.723487 174.137546 211 37914ft 451kts
18-Jun-17 00:45 -5.835231 174.081503 211 37913ft 451kts
18-Jun-17 00:46 -5.947366 174.025433 211 37911ft 451kts
18-Jun-17 00:46 -6.037977 173.974853 219 37920ft 446kts
18-Jun-17 00:47 -6.136225 173.899722 221 37913ft 445kts
18-Jun-17 00:49 -6.251308 173.812505 220 37911ft 445kts
18-Jun-17 00:49 -6.333916 173.751181 220 37910ft 445kts
18-Jun-17 00:50 -6.432832 173.677838 220 37913ft 444kts
18-Jun-17 00:51 -6.532064 173.604039 220 37907ft 445kts
18-Jun-17 00:52 -6.631615 173.529998 220 37906ft 445kts
18-Jun-17 00:53 -6.730704 173.456260 220 37905ft 445kts
18-Jun-17 00:54 -6.830269 173.382114 220 37903ft 445kts
18-Jun-17 00:55 -6.929336 173.307825 221 37914ft 445kts
18-Jun-17 00:56 -7.027733 173.233459 220 37914ft 445kts
18-Jun-17 00:57 -7.126995 173.159319 220 37916ft 445kts
18-Jun-17 00:58 -7.226828 173.085894 220 37915ft 445kts
18-Jun-17 00:59 -7.326475 173.011891 220 37914ft 445kts
18-Jun-17 01:00 -7.425707 172.937767 220 37912ft 445kts
18-Jun-17 01:01 -7.525022 172.863513 220 37911ft 445kts
18-Jun-17 01:02 -7.623922 172.789551 220 37909ft 445kts
18-Jun-17 01:03 -7.723203 172.715263 220 37908ft 445kts
18-Jun-17 01:04 -7.822509 172.640902 220 37907ft 445kts
18-Jun-17 01:05 -7.921706 172.566548 220 37905ft 445kts
18-Jun-17 01:06 -8.020690 172.492329 220 37904ft 445kts
18-Jun-17 01:07 -8.120046 172.417851 220 37906ft 446kts
18-Jun-17 01:08 -8.219479 172.344252 220 37909ft 446kts
18-Jun-17 01:09 -8.318320 172.269235 221 37917ft 445kts
18-Jun-17 01:10 -8.417210 172.194284 220 37915ft 445kts
18-Jun-17 01:11 -8.516113 172.119849 220 37914ft 445kts
18-Jun-17 01:12 -8.615536 172.045064 220 37913ft 445kts
18-Jun-17 01:13 -8.714524 171.970557 220 37911ft 445kts
18-Jun-17 01:14 -8.813113 171.896301 220 37939ft 445kts
18-Jun-17 01:15 -8.912123 171.821609 220 37936ft 445kts
18-Jun-17 01:16 -9.011155 171.746897 220 37934ft 445kts
18-Jun-17 01:17 -9.108059 171.673759 220 37934ft 445kts
18-Jun-17 01:18 -9.207480 171.599615 220 37935ft 445kts
18-Jun-17 01:19 -9.306700 171.525042 220 37934ft 445kts
18-Jun-17 01:20 -9.405618 171.450168 220 37933ft 445kts
18-Jun-17 01:21 -9.504404 171.375289 220 37931ft 445kts
18-Jun-17 01:22 -9.601442 171.301145 221 37942ft 445kts
18-Jun-17 01:23 -9.699885 171.225636 220 37941ft 445kts
18-Jun-17 01:24 -9.798756 171.150681 220 37940ft 445kts
18-Jun-17 01:25 -9.897781 171.075806 220 37939ft 445kts
18-Jun-17 01:26 -9.996830 171.001374 221 37940ft 445kts
18-Jun-17 01:27 -10.092502 170.922341 223 37936ft 443kts
18-Jun-17 01:28 -10.187480 170.842998 222 37938ft 444kts
18-Jun-17 01:29 -10.283181 170.764085 222 37937ft 444kts
18-Jun-17 01:30 -10.378564 170.685171 223 37936ft 444kts
18-Jun-17 01:31 -10.473818 170.606128 223 37934ft 444kts
18-Jun-17 01:32 -10.569423 170.526762 222 37933ft 444kts
18-Jun-17 01:33 -10.664721 170.447677 222 37932ft 444kts
18-Jun-17 01:34 -10.760034 170.368455 223 37930ft 444kts
18-Jun-17 01:35 -10.854831 170.288729 223 37942ft 444kts
18-Jun-17 01:36 -10.949626 170.208859 223 37941ft 444kts
18-Jun-17 01:37 -11.044775 170.129344 223 37939ft 444kts
18-Jun-17 01:38 -11.138945 170.050998 222 37945ft 445kts
18-Jun-17 01:39 -11.234522 169.972230 222 37940ft 444kts
18-Jun-17 01:40 -11.330117 169.892605 223 37939ft 444kts
18-Jun-17 01:41 -11.425055 169.813111 223 37937ft 444kts
18-Jun-17 01:42 -11.520154 169.733400 223 37936ft 444kts
18-Jun-17 01:43 -11.615228 169.653701 223 37941ft 444kts
18-Jun-17 01:44 -11.710156 169.574060 223 38004ft 444kts
18-Jun-17 01:45 -11.804764 169.494558 223 37933ft 444kts
18-Jun-17 01:46 -11.899684 169.414704 223 38036ft 444kts
18-Jun-17 01:47 -11.994240 169.335033 223 37943ft 444kts
18-Jun-17 01:48 -12.088802 169.254158 223 37941ft 444kts
18-Jun-17 01:49 -12.183309 169.174852 223 37943ft 444kts
18-Jun-17 01:50 -12.278602 169.095166 223 37941ft 444kts
18-Jun-17 01:51 -12.373611 169.015014 223 37940ft 444kts
18-Jun-17 01:52 -12.468717 168.934547 223 37939ft 444kts
18-Jun-17 01:53 -12.563471 168.854354 223 37937ft 444kts
18-Jun-17 01:54 -12.658543 168.773787 223 37936ft 444kts
18-Jun-17 01:56 -12.753340 168.693375 223 37935ft 444kts
18-Jun-17 01:57 -12.848068 168.612937 223 37933ft 444kts
18-Jun-17 01:58 -12.943014 168.532209 223 37932ft 444kts
18-Jun-17 01:59 -13.037604 168.451746 223 37930ft 444kts
18-Jun-17 02:00 -13.132263 168.371313 223 37933ft 444kts
18-Jun-17 02:01 -13.227124 168.290908 223 37944ft 444kts
18-Jun-17 02:02 -13.321340 168.209966 223 37940ft 441kts
18-Jun-17 02:03 -13.415674 168.129197 223 37948ft 444kts
18-Jun-17 02:04 -13.510455 168.048167 223 38073ft 444kts
18-Jun-17 02:05 -13.604565 167.967679 223 38017ft 444kts
18-Jun-17 02:06 -13.699248 167.886530 223 38071ft 444kts
18-Jun-17 02:07 -13.793764 167.805422 223 38071ft 444kts
18-Jun-17 02:08 -13.888033 167.724460 223 38017ft 444kts
18-Jun-17 02:09 -13.982365 167.643361 223 38014ft 444kts
18-Jun-17 02:10 -14.076159 167.562587 223 38011ft 444kts
18-Jun-17 02:11 -14.170467 167.482008 223 38015ft 444kts
18-Jun-17 02:12 -14.265259 167.401135 223 38014ft 444kts
18-Jun-17 02:13 -14.359293 167.319805 224 38080ft 444kts
18-Jun-17 02:14 -14.453062 167.237489 224 38022ft 444kts
18-Jun-17 02:15 -14.547295 167.155576 223 38022ft 444kts
18-Jun-17 02:16 -14.641207 167.074206 223 38072ft 444kts
18-Jun-17 02:17 -14.735306 166.992614 223 38073ft 444kts
18-Jun-17 02:18 -14.829550 166.910765 223 38019ft 444kts
18-Jun-17 02:19 -14.923885 166.828714 223 38017ft 444kts
18-Jun-17 02:20 -15.018096 166.746683 223 38015ft 444kts
18-Jun-17 02:21 -15.112008 166.664844 223 38016ft 444kts
18-Jun-17 02:22 -15.205086 166.584758 220 38033ft 437kts
18-Jun-17 02:23 -15.298061 166.504052 220 38072ft 437kts
18-Jun-17 02:24 -15.390537 166.423158 220 38071ft 437kts
18-Jun-17 02:25 -15.482983 166.342123 220 38073ft 437kts
18-Jun-17 02:26 -15.574985 166.260237 221 38076ft 437kts
18-Jun-17 02:27 -15.667167 166.178769 220 38015ft 439kts
18-Jun-17 02:28 -15.759578 166.097570 220 38019ft 437kts
18-Jun-17 02:29 -15.851819 166.016386 220 38074ft 437kts
18-Jun-17 02:30 -15.944503 165.934735 220 38069ft 437kts
18-Jun-17 02:31 -16.037120 165.853049 220 38068ft 437kts
18-Jun-17 02:32 -16.129670 165.771486 220 38078ft 438kts
18-Jun-17 02:33 -16.222737 165.690266 220 38075ft 438kts
18-Jun-17 02:34 -16.315252 165.608652 220 38073ft 438kts
18-Jun-17 02:35 -16.407581 165.526773 220 38071ft 438kts
18-Jun-17 02:36 -16.500193 165.444535 220 38070ft 438kts
18-Jun-17 02:37 -16.592580 165.362438 220 38068ft 438kts
18-Jun-17 02:38 -16.684510 165.279771 221 38075ft 438kts
18-Jun-17 02:39 -16.776792 165.196926 221 38074ft 438kts
18-Jun-17 02:40 -16.869237 165.114705 221 38072ft 438kts
18-Jun-17 02:41 -16.961861 165.032555 220 38070ft 438kts
18-Jun-17 02:42 -17.062963 164.962596 207 38068ft 440kts
18-Jun-17 02:43 -17.174128 164.910860 204 38074ft 442kts
18-Jun-17 02:44 -17.287809 164.857900 204 38077ft 451kts
18-Jun-17 02:45 -17.401436 164.802594 204 38075ft 451kts
18-Jun-17 02:46 -17.514580 164.747024 204 38074ft 451kts
18-Jun-17 02:47 -17.628011 164.691288 204 38072ft 451kts
18-Jun-17 02:48 -17.741272 164.635650 204 38071ft 451kts
18-Jun-17 02:49 -17.854321 164.580036 204 38070ft 451kts
18-Jun-17 02:50 -17.967463 164.524264 204 38069ft 451kts
18-Jun-17 02:51 -18.080123 164.468678 204 38066ft 451kts
18-Jun-17 02:52 -18.192923 164.413408 204 38076ft 451kts
18-Jun-17 02:53 -18.306345 164.357740 204 38074ft 451kts
18-Jun-17 02:54 -18.419073 164.300940 205 38076ft 451kts
18-Jun-17 02:55 -18.531740 164.244157 205 38075ft 451kts
18-Jun-17 02:56 -18.644954 164.187815 205 38074ft 451kts
18-Jun-17 02:57 -18.757684 164.131761 205 38072ft 451kts
18-Jun-17 02:58 -18.871015 164.075256 205 38071ft 451kts
18-Jun-17 02:59 -18.983866 164.018863 205 38070ft 451kts
18-Jun-17 03:00 -19.096797 163.962403 205 38069ft 451kts
18-Jun-17 03:01 -19.207743 163.907385 205 38077ft 451kts
18-Jun-17 03:02 -19.320828 163.851034 205 38076ft 451kts
18-Jun-17 03:03 -19.433426 163.794473 205 38074ft 451kts
18-Jun-17 03:04 -19.546289 163.737688 205 38073ft 451kts
18-Jun-17 03:05 -19.659245 163.680780 205 38072ft 451kts
18-Jun-17 03:06 -19.772211 163.623807 205 38071ft 451kts
18-Jun-17 03:07 -19.885082 163.566775 205 38069ft 451kts
18-Jun-17 03:08 -19.997857 163.509719 205 38068ft 451kts
18-Jun-17 03:09 -20.109548 163.453127 205 38069ft 451kts
18-Jun-17 03:10 -20.222759 163.396259 205 38075ft 450kts
18-Jun-17 03:11 -20.335570 163.339120 206 38078ft 451kts
18-Jun-17 03:12 -20.447852 163.280660 206 38076ft 450kts
18-Jun-17 03:13 -20.560576 163.222740 205 38074ft 450kts
18-Jun-17 03:14 -20.673317 163.165264 205 38073ft 450kts
18-Jun-17 03:15 -20.785418 163.108091 210 38056ft 452kts
18-Jun-17 03:16 -20.900370 163.049292 210 38088ft 469kts
18-Jun-17 03:17 -20.989900 162.958132 251 38115ft 450kts
18-Jun-17 03:18 -21.004175 162.826557 271 38082ft 448kts
18-Jun-17 03:19 -20.999253 162.693519 271 38070ft 448kts
18-Jun-17 03:20 -20.997884 162.560453 269 38070ft 448kts
18-Jun-17 03:21 -20.998239 162.427316 269 38068ft 448kts
18-Jun-17 03:22 -20.998389 162.293927 270 38078ft 448kts
18-Jun-17 03:22 -20.998406 162.183139 270 38076ft 448kts
18-Jun-17 03:24 -21.004951 162.028325 250 38054ft 449kts
18-Jun-17 03:24 -21.068655 161.940517 222 38081ft 460kts
18-Jun-17 03:25 -21.175618 161.864732 215 38074ft 464kts
18-Jun-17 03:26 -21.284497 161.791402 217 38073ft 463kts
18-Jun-17 03:27 -21.390959 161.714678 218 38072ft 462kts
18-Jun-17 03:28 -21.496635 161.637287 218 38071ft 462kts
18-Jun-17 03:29 -21.602833 161.559632 218 38070ft 462kts
18-Jun-17 03:30 -21.708742 161.482147 218 38069ft 462kts
18-Jun-17 03:31 -21.814558 161.404556 218 38068ft 462kts
18-Jun-17 03:32 -21.918929 161.327747 218 38079ft 461kts
18-Jun-17 03:33 -22.023812 161.249301 218 38076ft 461kts
18-Jun-17 03:34 -22.129239 161.171236 218 38076ft 462kts
18-Jun-17 03:35 -22.235421 161.093895 218 38076ft 462kts
18-Jun-17 03:36 -22.341285 161.016003 218 38074ft 461kts
18-Jun-17 03:37 -22.446469 160.938018 218 38079ft 461kts
18-Jun-17 03:38 -22.552105 160.859501 218 38073ft 461kts
18-Jun-17 03:39 -22.657081 160.781333 218 38072ft 461kts
18-Jun-17 03:40 -22.761485 160.703524 218 38080ft 459kts
18-Jun-17 03:41 -22.866759 160.624850 218 38070ft 461kts
18-Jun-17 03:42 -22.971850 160.546233 218 38069ft 461kts
18-Jun-17 03:43 -23.077197 160.467265 218 38068ft 460kts
18-Jun-17 03:44 -23.182345 160.388959 217 38069ft 461kts
18-Jun-17 03:45 -23.287525 160.310136 219 38078ft 460kts
18-Jun-17 03:46 -23.391858 160.230358 218 38076ft 460kts
18-Jun-17 03:47 -23.496542 160.150963 218 38076ft 460kts
18-Jun-17 03:48 -23.601461 160.071530 218 38075ft 460kts
18-Jun-17 03:49 -23.706082 159.992219 218 38074ft 460kts
18-Jun-17 03:50 -23.810761 159.912647 218 38073ft 459kts
18-Jun-17 03:51 -23.915361 159.832967 218 38072ft 459kts
18-Jun-17 03:52 -24.019681 159.753363 218 38071ft 459kts
18-Jun-17 03:53 -24.124270 159.673479 218 38072ft 460kts
18-Jun-17 03:54 -24.229054 159.594294 218 38071ft 459kts
18-Jun-17 03:55 -24.333491 159.514460 218 38070ft 459kts
18-Jun-17 03:56 -24.437729 159.434217 218 38069ft 459kts
18-Jun-17 03:57 -24.541692 159.354063 218 38171ft 459kts
18-Jun-17 03:58 -24.645483 159.272882 219 38184ft 459kts
18-Jun-17 03:59 -24.749200 159.192134 219 38184ft 459kts
18-Jun-17 04:00 -24.853243 159.111756 218 38183ft 459kts
18-Jun-17 04:01 -24.957849 159.031085 218 38182ft 459kts
18-Jun-17 04:02 -25.066186 158.956811 212 38180ft 462kts
18-Jun-17 04:03 -25.180886 158.892817 210 38182ft 463kts
18-Jun-17 04:04 -25.293980 158.829954 211 38190ft 461kts
18-Jun-17 04:05 -25.407811 158.764646 211 38180ft 462kts
18-Jun-17 04:06 -25.521700 158.698983 211 38179ft 462kts
18-Jun-17 04:07 -25.635466 158.633333 211 38179ft 462kts
18-Jun-17 04:08 -25.749124 158.567618 211 38178ft 462kts
18-Jun-17 04:09 -25.862016 158.502220 211 38177ft 462kts
18-Jun-17 04:10 -25.975454 158.436346 211 38176ft 462kts
18-Jun-17 04:11 -26.089129 158.370156 211 38175ft 462kts
18-Jun-17 04:12 -26.202457 158.304036 212 38185ft 461kts
18-Jun-17 04:13 -26.315415 158.237533 211 38185ft 461kts
18-Jun-17 04:14 -26.428540 158.171170 211 38184ft 461kts
18-Jun-17 04:15 -26.541584 158.104829 211 38183ft 461kts
18-Jun-17 04:16 -26.654125 158.038595 211 38182ft 461kts
18-Jun-17 04:17 -26.767231 157.971867 211 38181ft 460kts
18-Jun-17 04:18 -26.880075 157.905158 211 38180ft 460kts
18-Jun-17 04:19 -26.993263 157.838097 211 38179ft 460kts
18-Jun-17 04:20 -27.106018 157.771151 211 38179ft 460kts
18-Jun-17 04:21 -27.219047 157.704673 211 38180ft 460kts
18-Jun-17 04:22 -27.331841 157.637794 211 38179ft 460kts
18-Jun-17 04:23 -27.444350 157.570515 211 38178ft 460kts
18-Jun-17 04:24 -27.557125 157.502875 211 38177ft 460kts
18-Jun-17 04:25 -27.669393 157.435438 211 38176ft 460kts
18-Jun-17 04:26 -27.782187 157.367526 211 38176ft 459kts
18-Jun-17 04:27 -27.893162 157.299865 212 38146ft 454kts
18-Jun-17 04:28 -28.004760 157.231350 212 38156ft 459kts
18-Jun-17 04:30 -28.116802 157.163325 211 38156ft 459kts
18-Jun-17 04:31 -28.228888 157.096122 211 38176ft 459kts
18-Jun-17 04:32 -28.341112 157.028123 212 38210ft 459kts
18-Jun-17 04:33 -28.453120 156.959723 212 38209ft 458kts
18-Jun-17 04:34 -28.565134 156.891138 212 38208ft 458kts
18-Jun-17 04:35 -28.677035 156.822464 212 38207ft 458kts
18-Jun-17 04:36 -28.788967 156.753607 212 38206ft 458kts
18-Jun-17 04:37 -28.900796 156.684628 212 38205ft 458kts
18-Jun-17 04:38 -29.012588 156.615509 212 38204ft 458kts
18-Jun-17 04:39 -29.122718 156.547302 211 38206ft 458kts
18-Jun-17 04:40 -29.234298 156.478841 211 38205ft 458kts
18-Jun-17 04:41 -29.346213 156.409445 212 38204ft 458kts
18-Jun-17 04:42 -29.457558 156.339904 212 38210ft 457kts
18-Jun-17 04:43 -29.568407 156.269332 212 38211ft 457kts
18-Jun-17 04:44 -29.679402 156.199364 212 38210ft 457kts
18-Jun-17 04:45 -29.790872 156.129505 212 38209ft 457kts
18-Jun-17 04:46 -29.902375 156.059601 212 38208ft 457kts
18-Jun-17 04:47 -30.012589 155.988289 217 38216ft 454kts
18-Jun-17 04:48 -30.110918 155.898232 222 38208ft 452kts
18-Jun-17 04:49 -30.207303 155.806494 221 38209ft 452kts
18-Jun-17 04:50 -30.305243 155.715633 221 38234ft 452kts
18-Jun-17 04:51 -30.403191 155.624838 221 38233ft 452kts
18-Jun-17 04:52 -30.501042 155.533750 221 38226ft 451kts
18-Jun-17 04:53 -30.598709 155.442488 221 38231ft 452kts
18-Jun-17 04:54 -30.696221 155.351161 221 38230ft 452kts
18-Jun-17 04:55 -30.790359 155.261772 222 38237ft 452kts
18-Jun-17 04:56 -30.887502 155.169602 221 38236ft 452kts
18-Jun-17 04:57 -30.984988 155.077532 221 38235ft 452kts
18-Jun-17 04:58 -31.081976 154.985782 221 38234ft 451kts
18-Jun-17 04:59 -31.179483 154.894146 221 38237ft 452kts
18-Jun-17 05:00 -31.276968 154.802263 221 38236ft 451kts
18-Jun-17 05:01 -31.374268 154.709520 221 38234ft 451kts
18-Jun-17 05:02 -31.470959 154.616951 221 38233ft 451kts
18-Jun-17 05:03 -31.567870 154.523935 221 38232ft 451kts
18-Jun-17 05:04 -31.664424 154.431028 221 38309ft 451kts
18-Jun-17 05:05 -31.759647 154.339131 222 38315ft 451kts
18-Jun-17 05:06 -31.855518 154.245172 222 38318ft 451kts
18-Jun-17 05:07 -31.951793 154.151200 222 38317ft 450kts
18-Jun-17 05:08 -32.048069 154.057531 222 38315ft 450kts
18-Jun-17 05:09 -32.144309 153.964059 221 38319ft 450kts
18-Jun-17 05:10 -32.241145 153.870551 222 38317ft 450kts
18-Jun-17 05:11 -32.337301 153.776467 222 38316ft 450kts
18-Jun-17 05:12 -32.433403 153.681836 222 38315ft 450kts
18-Jun-17 05:13 -32.529275 153.587180 222 38314ft 450kts
18-Jun-17 05:14 -32.625049 153.492398 222 38312ft 450kts
18-Jun-17 05:15 -32.720534 153.397642 222 38311ft 450kts
18-Jun-17 05:16 -32.801722 153.316695 222 38320ft 450kts
18-Jun-17 05:17 -32.896219 153.221199 222 38317ft 449kts
18-Jun-17 05:18 -32.991008 153.125935 221 37030ft 437kts
18-Jun-17 05:19 -33.080807 153.035938 219 35010ft 422kts
18-Jun-17 05:20 -33.170213 152.946957 218 33131ft 416kts
18-Jun-17 05:21 -33.256986 152.860270 218 31291ft 402kts
18-Jun-17 05:22 -33.340858 152.775512 218 29513ft 390kts
18-Jun-17 05:23 -33.422165 152.693042 217 27790ft 380kts
18-Jun-17 05:24 -33.501551 152.612341 216 26111ft 370kts
18-Jun-17 05:25 -33.578890 152.533547 216 24481ft 362kts
18-Jun-17 05:26 -33.654523 152.456330 215 22890ft 355kts
18-Jun-17 05:27 -33.727785 152.381385 215 21357ft 348kts
18-Jun-17 05:28 -33.795684 152.311384 216 19931ft 343kts
18-Jun-17 05:29 -33.859196 152.245361 216 18595ft 337kts
18-Jun-17 05:30 -33.929501 152.173040 216 17140ft 330kts
18-Jun-17 05:31 -33.998615 152.102393 216 15670ft 324kts
18-Jun-17 05:32 -34.024705 151.999287 268 14267ft 341kts
18-Jun-17 05:33 -34.015159 151.886674 274 12768ft 335kts
18-Jun-17 05:34 -34.003382 151.776748 274 11332ft 328kts
18-Jun-17 05:35 -33.992864 151.672291 273 10469ft 305kts
18-Jun-17 05:36 -33.960384 151.578820 302 9675ft 309kts
18-Jun-17 05:37 -33.914734 151.492801 299 8597ft 303kts
18-Jun-17 05:38 -33.873346 151.405793 297 7549ft 298kts
18-Jun-17 05:39 -33.841000 151.334993 297 6620ft 276kts
18-Jun-17 05:40 -33.809635 151.264722 296 5681ft 243kts
18-Jun-17 05:41 -33.779644 151.197627 296 4847ft 219kts
18-Jun-17 05:42 -33.797746 151.149538 184 3527ft 161kts
18-Jun-17 05:43 -33.840103 151.147800 166 2292ft 149kts
18-Jun-17 05:44 -33.880330 151.159114 172 1060ft 146kts
18-Jun-17 05:45 -33.920145 151.169222 171 258ft 146kts
18-Jun-17 05:46 -33.948870 151.176626 176 35ft 34kts
18-Jun-17 05:47 -33.950805 151.175117 346 35ft 8kts
18-Jun-17 05:48 -33.948481 151.174471 347 35ft 12kts
18-Jun-17 05:49 -33.943584 151.173242 348 35ft 21kts
18-Jun-17 05:50 -33.940188 151.170221 252 35ft 17kts
18-Jun-17 05:51 -33.938736 151.167123 263 35ft 7kts
18-Jun-17 05:52 -33.938872 151.166502 254 35ft 0kts
18-Jun-17 05:53 -33.948868 151.174580 347 35ft 10kts
18-Jun-17 05:54 -33.922957 151.169947 171 198ft 146kts

Navigation Log

Ident Type
Flight plan parsing failed, navigation log unavailable